Littleton, NH

9:04 AM EDT on September 01, 2015 (GMT -0400)
NHDOT | | Change Station
CLOSE
Current Station
Personal Weather Station
Location: Waterford, VT
Elevation: 866 ft
Nearby Weather Stations

Elev 866 ft 44.33 °N, 71.87 °W | Updated 73 days ago

Partly Cloudy
Partly Cloudy
65 °F
Feels Like 65 °F
N
2
Wind Variable Wind from North
Gusts mph

Today
High -- | Low -- °F
--% Chance of Precip.
Yesterday
High -- | Low -- °F
Precip. -- in
6:10 AM 7:24 PM
Waning Gibbous, 89% visible
Pressure 30.12 in
Visibility 0.2 miles
Clouds Overcast 100 ft
Dew Point 55 °F
Humidity 71%
Rainfall in
Snow Depth Not available.
UV 1 out of 12
Pollen 8.20 out of 12
Air Quality Not available.
Flu Activity Not available.
METAR KCDA 011255Z AUTO 00000KT M1/4SM FG OVC001 15/15 A3012 RMK AO2 T01500146
Pressure 30.12 in
Visibility 0.2 miles
Clouds Overcast 100 ft
Dew Point 55 °F
Humidity 71%
Rainfall in
Snow Depth Not available.
UV 1 out of 12
Pollen 8.20 out of 12
Air Quality Not available.
Flu Activity Not available.
METAR KCDA 011255Z AUTO 00000KT M1/4SM FG OVC001 15/15 A3012 RMK AO2 T01500146

10-Day Weather Forecast

×

Almanac

Astronomy

Sep. 01, 2015 Rise Set
Actual Time
Civil Twilight
Nautical Twilight
Astronomical Twilight
Moon
Length of Visible Light
Length of Day
Tomorrow will be .
, % of the Moon is Illuminated

Today's Extremes

State Highs State Lows

Community

WunderPhotos

Upload Photos

1,851,513 photos uploaded!

WunderBlogs® & News

Nearby

Air Quality

  Air Quality AQ Index Pollutant
Not available.

Snow Depth

Station Depth Elevation

Earthquake Activity

City Distance Mag. Time & Date
Minimum magnitude displayed is 2.5.

Coastal Water Temperatures

Place Temperature

Stations

Nearby Weather Stations

Station Location Temp. Windchill Dew Point Humidity Wind Precip. Elev Updated Type